Camp Strake, Texas
Current Conditions -  °F | °C
As of 7:53 PM on Thursday 20 Nov 2014 (Local Time) from KDWH Reporting Station
Light Rain Light Rain  
Wind Chill: 64°   Ceiling: 3700
Heat Index: 64°   Visibility: 10mi
Dew Point: 54°   Wind: 8mph
Humidity: 70%   Direction: 150°SSE
Pressure: 30.11"   Gusts: NA
Location:  30.3059°N, 95.4359°W
Report Text: KDWH 210153Z 15007KT 10SM -RA FEW027 BKN037 OVC045 18/12 A3011 RMK AO2 RAB30 SLP193 P0000 T01780122
Loading
Personal Weather Stations






























Interactive Weather Map New forecast layout! Learn more

10-Day Weather Forecast

Advertisements
Track Severe Weather on mobile